Terminal Aerodrome Forecast
Issued by NWS Pittsburgh, PA

Current Version | Previous Version | Graphics & Text | Print | Product List | Glossary On
Versions: 1 2 3 4 5 6 7 8 9 10 11 12 13 14 15 16 17 18 19 20 21 22 23 24 25 26 27 28
000
FTUS41 KPBZ 270240 AAB
TAFPIT
TAF AMD
KPIT 270240Z 2703/2806 18007KT P6SM BKN080
      TEMPO 2703/2705 3SM -TSRA BKN035CB
     FM270500 20003KT 5SM -RA BR BKN040
     FM271000 VRB05KT 3SM BR BKN025
     FM271600 22010KT P6SM BKN050
     FM280000 20008KT P6SM SCT050=

USA.gov is the U.S. government's official web portal to all federal, state and local government web resources and services.